sensor_id;sensor_type;location;lat;lon;timestamp;P1;durP1;ratioP1;P2;durP2;ratioP2
1887;SDS011;944;51.574;6.980;2024-01-30T05:48:16;12.33;;;7.33;;
1887;SDS011;944;51.574;6.980;2024-01-30T06:27:26;16.20;;;9.57;;
1887;SDS011;944;51.574;6.980;2024-01-30T06:30:39;23.33;;;9.70;;
1887;SDS011;944;51.574;6.980;2024-01-30T06:34:26;19.70;;;10.80;;
1887;SDS011;944;51.574;6.980;2024-01-30T06:37:49;24.03;;;10.63;;
1887;SDS011;944;51.574;6.980;2024-01-30T06:44:19;17.47;;;9.73;;
1887;SDS011;944;51.574;6.980;2024-01-30T06:46:52;20.67;;;9.63;;
1887;SDS011;944;51.574;6.980;2024-01-30T06:49:33;22.40;;;9.53;;
1887;SDS011;944;51.574;6.980;2024-01-30T06:52:16;24.00;;;11.50;;
1887;SDS011;944;51.574;6.980;2024-01-30T06:54:48;16.53;;;9.70;;
1887;SDS011;944;51.574;6.980;2024-01-30T06:57:26;22.10;;;9.90;;
1887;SDS011;944;51.574;6.980;2024-01-30T07:00:16;23.57;;;10.27;;
1887;SDS011;944;51.574;6.980;2024-01-30T07:03:27;20.00;;;10.23;;
1887;SDS011;944;51.574;6.980;2024-01-30T07:06:09;25.73;;;11.10;;
1887;SDS011;944;51.574;6.980;2024-01-30T07:08:42;21.27;;;10.77;;
1887;SDS011;944;51.574;6.980;2024-01-30T07:16:13;23.57;;;9.50;;
1887;SDS011;944;51.574;6.980;2024-01-30T07:18:42;13.00;;;8.83;;
1887;SDS011;944;51.574;6.980;2024-01-30T07:25:00;22.47;;;8.70;;
1887;SDS011;944;51.574;6.980;2024-01-30T07:27:29;17.10;;;9.40;;
1887;SDS011;944;51.574;6.980;2024-01-30T07:30:31;23.90;;;9.53;;
1887;SDS011;944;51.574;6.980;2024-01-30T07:33:33;13.80;;;8.73;;
1887;SDS011;944;51.574;6.980;2024-01-30T07:36:31;10.90;;;7.60;;
1887;SDS011;944;51.574;6.980;2024-01-30T07:39:15;12.00;;;7.63;;
1887;SDS011;944;51.574;6.980;2024-01-30T07:42:05;17.93;;;8.17;;
1887;SDS011;944;51.574;6.980;2024-01-30T08:40:36;10.33;;;6.53;;
1887;SDS011;944;51.574;6.980;2024-01-30T09:07:25;14.00;;;6.60;;
1887;SDS011;944;51.574;6.980;2024-01-30T09:10:33;11.70;;;6.40;;
1887;SDS011;944;51.574;6.980;2024-01-30T09:12:56;12.40;;;7.10;;
1887;SDS011;944;51.574;6.980;2024-01-30T09:15:27;10.90;;;6.40;;
1887;SDS011;944;51.574;6.980;2024-01-30T09:18:49;15.17;;;6.73;;
1887;SDS011;944;51.574;6.980;2024-01-30T09:25:08;10.83;;;6.47;;
1887;SDS011;944;51.574;6.980;2024-01-30T09:27:38;8.93;;;6.10;;
1887;SDS011;944;51.574;6.980;2024-01-30T09:30:06;11.80;;;7.10;;
1887;SDS011;944;51.574;6.980;2024-01-30T09:32:58;14.53;;;6.70;;
1887;SDS011;944;51.574;6.980;2024-01-30T09:36:01;12.20;;;7.40;;
1887;SDS011;944;51.574;6.980;2024-01-30T09:38:32;13.43;;;7.40;;
1887;SDS011;944;51.574;6.980;2024-01-30T09:41:06;13.33;;;7.63;;
1887;SDS011;944;51.574;6.980;2024-01-30T10:09:54;11.77;;;6.37;;
1887;SDS011;944;51.574;6.980;2024-01-30T10:16:24;17.33;;;6.70;;
1887;SDS011;944;51.574;6.980;2024-01-30T11:25:20;14.27;;;7.30;;
1887;SDS011;944;51.574;6.980;2024-01-30T11:32:04;17.00;;;8.23;;
1887;SDS011;944;51.574;6.980;2024-01-30T11:34:32;18.27;;;7.70;;
1887;SDS011;944;51.574;6.980;2024-01-30T11:37:03;12.77;;;7.93;;
1887;SDS011;944;51.574;6.980;2024-01-30T11:39:40;23.90;;;8.50;;
1887;SDS011;944;51.574;6.980;2024-01-30T11:44:30;12.90;;;6.50;;
1887;SDS011;944;51.574;6.980;2024-01-30T13:27:41;15.93;;;8.40;;
1887;SDS011;944;51.574;6.980;2024-01-30T13:35:52;16.17;;;8.27;;
1887;SDS011;944;51.574;6.980;2024-01-30T16:20:06;5.83;;;2.57;;
1887;SDS011;944;51.574;6.980;2024-01-30T16:22:55;6.70;;;2.17;;
1887;SDS011;944;51.574;6.980;2024-01-30T17:33:28;5.90;;;2.33;;
1887;SDS011;944;51.574;6.980;2024-01-30T17:37:06;7.13;;;2.93;;
1887;SDS011;944;51.574;6.980;2024-01-30T17:46:26;12.70;;;7.03;;
1887;SDS011;944;51.574;6.980;2024-01-30T17:56:17;10.90;;;7.87;;
1887;SDS011;944;51.574;6.980;2024-01-30T18:02:27;18.00;;;8.70;;
1887;SDS011;944;51.574;6.980;2024-01-30T18:04:57;13.80;;;8.90;;
1887;SDS011;944;51.574;6.980;2024-01-30T18:07:28;17.03;;;9.77;;
1887;SDS011;944;51.574;6.980;2024-01-30T18:09:55;10.83;;;8.50;;
1887;SDS011;944;51.574;6.980;2024-01-30T18:12:22;17.47;;;8.77;;
1887;SDS011;944;51.574;6.980;2024-01-30T18:15:07;12.97;;;8.47;;
1887;SDS011;944;51.574;6.980;2024-01-30T18:17:38;10.00;;;7.47;;
1887;SDS011;944;51.574;6.980;2024-01-30T18:20:05;9.97;;;7.00;;
1887;SDS011;944;51.574;6.980;2024-01-30T18:22:38;10.40;;;6.30;;
1887;SDS011;944;51.574;6.980;2024-01-30T18:25:07;6.13;;;5.50;;
1887;SDS011;944;51.574;6.980;2024-01-30T18:27:35;9.70;;;5.93;;
1887;SDS011;944;51.574;6.980;2024-01-30T18:30:02;9.43;;;5.50;;
1887;SDS011;944;51.574;6.980;2024-01-30T18:32:32;8.30;;;5.07;;
1887;SDS011;944;51.574;6.980;2024-01-30T18:35:02;9.27;;;5.20;;
1887;SDS011;944;51.574;6.980;2024-01-30T18:37:33;7.37;;;5.70;;
1887;SDS011;944;51.574;6.980;2024-01-30T18:40:00;10.77;;;5.70;;
1887;SDS011;944;51.574;6.980;2024-01-30T18:42:39;7.13;;;5.70;;
1887;SDS011;944;51.574;6.980;2024-01-30T18:45:06;11.83;;;5.90;;
1887;SDS011;944;51.574;6.980;2024-01-30T18:47:55;9.90;;;6.93;;
1887;SDS011;944;51.574;6.980;2024-01-30T18:50:49;10.33;;;6.30;;
1887;SDS011;944;51.574;6.980;2024-01-30T18:53:16;13.37;;;8.00;;
1887;SDS011;944;51.574;6.980;2024-01-30T18:55:53;8.50;;;6.70;;
1887;SDS011;944;51.574;6.980;2024-01-30T18:58:21;10.83;;;6.57;;
1887;SDS011;944;51.574;6.980;2024-01-30T19:00:49;13.23;;;7.10;;
1887;SDS011;944;51.574;6.980;2024-01-30T19:03:22;8.27;;;7.27;;
1887;SDS011;944;51.574;6.980;2024-01-30T19:06:10;9.93;;;7.37;;
1887;SDS011;944;51.574;6.980;2024-01-30T19:08:37;12.00;;;7.90;;
1887;SDS011;944;51.574;6.980;2024-01-30T19:11:17;12.77;;;8.43;;
1887;SDS011;944;51.574;6.980;2024-01-30T19:13:52;12.70;;;8.07;;
1887;SDS011;944;51.574;6.980;2024-01-30T19:16:30;19.73;;;9.10;;
1887;SDS011;944;51.574;6.980;2024-01-30T19:22:40;11.60;;;9.43;;
1887;SDS011;944;51.574;6.980;2024-01-30T19:25:10;15.10;;;9.20;;
1887;SDS011;944;51.574;6.980;2024-01-30T19:28:36;13.57;;;9.67;;
1887;SDS011;944;51.574;6.980;2024-01-30T19:31:03;20.40;;;9.60;;
1887;SDS011;944;51.574;6.980;2024-01-30T19:33:41;15.90;;;8.93;;
1887;SDS011;944;51.574;6.980;2024-01-30T19:36:08;14.63;;;9.67;;
1887;SDS011;944;51.574;6.980;2024-01-30T19:38:45;19.30;;;9.83;;
1887;SDS011;944;51.574;6.980;2024-01-30T19:41:12;12.37;;;9.60;;
1887;SDS011;944;51.574;6.980;2024-01-30T19:43:41;13.03;;;9.87;;
1887;SDS011;944;51.574;6.980;2024-01-30T19:49:52;15.00;;;10.10;;
1887;SDS011;944;51.574;6.980;2024-01-30T19:52:19;16.50;;;10.30;;
1887;SDS011;944;51.574;6.980;2024-01-30T19:54:48;12.80;;;10.33;;
1887;SDS011;944;51.574;6.980;2024-01-30T19:57:15;17.93;;;11.60;;
1887;SDS011;944;51.574;6.980;2024-01-30T19:59:45;18.20;;;11.50;;
1887;SDS011;944;51.574;6.980;2024-01-30T20:02:33;15.20;;;11.57;;
1887;SDS011;944;51.574;6.980;2024-01-30T20:08:48;15.00;;;11.30;;
1887;SDS011;944;51.574;6.980;2024-01-30T20:11:17;21.43;;;12.27;;
1887;SDS011;944;51.574;6.980;2024-01-30T20:13:44;19.23;;;13.23;;
1887;SDS011;944;51.574;6.980;2024-01-30T20:16:17;18.27;;;13.00;;
1887;SDS011;944;51.574;6.980;2024-01-30T20:18:48;17.83;;;12.63;;
1887;SDS011;944;51.574;6.980;2024-01-30T20:25:15;20.13;;;13.53;;
1887;SDS011;944;51.574;6.980;2024-01-30T20:28:04;16.73;;;12.30;;
1887;SDS011;944;51.574;6.980;2024-01-30T20:34:13;23.33;;;13.87;;
1887;SDS011;944;51.574;6.980;2024-01-30T20:36:46;20.87;;;13.20;;
1887;SDS011;944;51.574;6.980;2024-01-30T20:42:57;19.83;;;13.10;;
1887;SDS011;944;51.574;6.980;2024-01-30T20:49:11;19.73;;;13.40;;
1887;SDS011;944;51.574;6.980;2024-01-30T20:51:41;25.13;;;14.13;;
1887;SDS011;944;51.574;6.980;2024-01-30T20:57:56;19.60;;;13.17;;
1887;SDS011;944;51.574;6.980;2024-01-30T21:00:23;19.67;;;13.37;;
1887;SDS011;944;51.574;6.980;2024-01-30T21:02:53;19.50;;;13.73;;
1887;SDS011;944;51.574;6.980;2024-01-30T21:05:26;25.53;;;15.77;;
1887;SDS011;944;51.574;6.980;2024-01-30T21:07:53;18.60;;;12.97;;
1887;SDS011;944;51.574;6.980;2024-01-30T21:10:24;23.90;;;13.90;;
1887;SDS011;944;51.574;6.980;2024-01-30T21:12:54;20.90;;;15.30;;
1887;SDS011;944;51.574;6.980;2024-01-30T21:15:24;18.30;;;13.20;;
1887;SDS011;944;51.574;6.980;2024-01-30T21:17:55;21.37;;;15.23;;
1887;SDS011;944;51.574;6.980;2024-01-30T21:20:32;23.23;;;14.30;;
1887;SDS011;944;51.574;6.980;2024-01-30T21:23:00;25.00;;;14.60;;
1887;SDS011;944;51.574;6.980;2024-01-30T21:25:28;24.87;;;15.40;;
1887;SDS011;944;51.574;6.980;2024-01-30T21:27:55;25.67;;;16.07;;
1887;SDS011;944;51.574;6.980;2024-01-30T21:30:27;29.73;;;15.80;;
1887;SDS011;944;51.574;6.980;2024-01-30T21:32:54;20.87;;;15.00;;
1887;SDS011;944;51.574;6.980;2024-01-30T21:35:21;25.63;;;16.33;;
1887;SDS011;944;51.574;6.980;2024-01-30T21:37:50;23.80;;;15.57;;
1887;SDS011;944;51.574;6.980;2024-01-30T21:40:17;28.10;;;15.50;;
1887;SDS011;944;51.574;6.980;2024-01-30T21:42:44;25.43;;;17.10;;
1887;SDS011;944;51.574;6.980;2024-01-30T21:45:14;23.33;;;15.40;;
1887;SDS011;944;51.574;6.980;2024-01-30T21:47:44;30.10;;;18.80;;
1887;SDS011;944;51.574;6.980;2024-01-30T21:53:58;26.40;;;17.17;;
1887;SDS011;944;51.574;6.980;2024-01-30T21:56:27;25.10;;;18.57;;
1887;SDS011;944;51.574;6.980;2024-01-30T21:59:07;26.90;;;17.50;;
1887;SDS011;944;51.574;6.980;2024-01-30T22:01:44;25.43;;;17.00;;
1887;SDS011;944;51.574;6.980;2024-01-30T22:04:16;23.53;;;17.00;;
1887;SDS011;944;51.574;6.980;2024-01-30T22:10:35;27.40;;;17.07;;
1887;SDS011;944;51.574;6.980;2024-01-30T22:13:05;30.93;;;18.77;;
1887;SDS011;944;51.574;6.980;2024-01-30T22:15:35;24.70;;;16.80;;
1887;SDS011;944;51.574;6.980;2024-01-30T22:18:05;25.53;;;17.97;;
1887;SDS011;944;51.574;6.980;2024-01-30T22:20:38;30.13;;;19.00;;
1887;SDS011;944;51.574;6.980;2024-01-30T22:23:22;26.60;;;18.50;;
1887;SDS011;944;51.574;6.980;2024-01-30T22:25:58;31.40;;;18.17;;
1887;SDS011;944;51.574;6.980;2024-01-30T22:36:25;14.77;;;10.37;;
1887;SDS011;944;51.574;6.980;2024-01-30T22:39:01;11.60;;;7.87;;
1887;SDS011;944;51.574;6.980;2024-01-30T22:41:47;12.80;;;8.27;;
1887;SDS011;944;51.574;6.980;2024-01-30T22:48:14;17.40;;;8.70;;
1887;SDS011;944;51.574;6.980;2024-01-30T22:50:41;17.50;;;9.30;;
1887;SDS011;944;51.574;6.980;2024-01-30T22:53:11;15.83;;;10.10;;
1887;SDS011;944;51.574;6.980;2024-01-30T22:55:42;19.47;;;11.13;;
1887;SDS011;944;51.574;6.980;2024-01-30T22:58:11;17.00;;;10.03;;
1887;SDS011;944;51.574;6.980;2024-01-30T23:00:41;21.50;;;9.80;;
1887;SDS011;944;51.574;6.980;2024-01-30T23:03:12;23.80;;;10.00;;
1887;SDS011;944;51.574;6.980;2024-01-30T23:06:57;19.43;;;9.30;;
1887;SDS011;944;51.574;6.980;2024-01-30T23:13:00;18.60;;;7.53;;
1887;SDS011;944;51.574;6.980;2024-01-30T23:18:29;20.43;;;8.13;;
1887;SDS011;944;51.574;6.980;2024-01-30T23:21:10;20.53;;;8.43;;
1887;SDS011;944;51.574;6.980;2024-01-30T23:23:46;21.47;;;8.67;;
1887;SDS011;944;51.574;6.980;2024-01-30T23:26:16;21.87;;;9.83;;
1887;SDS011;944;51.574;6.980;2024-01-30T23:28:44;24.83;;;9.90;;
1887;SDS011;944;51.574;6.980;2024-01-30T23:31:13;22.53;;;9.87;;
1887;SDS011;944;51.574;6.980;2024-01-30T23:33:43;21.30;;;9.63;;
1887;SDS011;944;51.574;6.980;2024-01-30T23:36:19;29.30;;;10.00;;
1887;SDS011;944;51.574;6.980;2024-01-30T23:38:58;28.03;;;10.37;;
1887;SDS011;944;51.574;6.980;2024-01-30T23:41:33;26.70;;;9.93;;
1887;SDS011;944;51.574;6.980;2024-01-30T23:44:05;23.93;;;10.00;;
1887;SDS011;944;51.574;6.980;2024-01-30T23:46:43;31.97;;;9.80;;
1887;SDS011;944;51.574;6.980;2024-01-30T23:49:10;27.20;;;10.90;;
1887;SDS011;944;51.574;6.980;2024-01-30T23:51:46;26.50;;;9.40;;
1887;SDS011;944;51.574;6.980;2024-01-30T23:54:25;26.57;;;10.63;;
1887;SDS011;944;51.574;6.980;2024-01-30T23:56:56;23.80;;;9.60;;
1887;SDS011;944;51.574;6.980;2024-01-30T23:59:50;29.73;;;10.30;;
